Aviation Digital Data Service (ADDS)

Output produced by METARs form (1437 UTC 22 February 2018)
found at http://www.aviationweather.gov/adds/metars/
 
KGLH 221353Z 36011KT 10SM OVC006 08/06 A3031 RMK AO2 LTG DSNT E-S RAE10 SLP273 P0000 T00780061
KGLH 221253Z 35010KT 10SM -RA OVC008 08/07 A3028 RMK AO2 LTG DSNT E-S TSE1154 CIG 006V009 SLP263 P0003 T00780067
KGLH 221225Z AUTO 35008KT 10SM -RA OVC008 08/07 A3027 RMK AO2 LTG DSNT NE-S TSE1154 P0003 T00780067
KGLH 221218Z AUTO 33008KT 8SM -RA SCT006 BKN011 OVC090 08/07 A3028 RMK AO2 LTG DSNT NE-S TSE1154 P0003 T00780067
KGLH 221207Z AUTO 34008KT 8SM VCTS RA SCT008 BKN022 OVC090 08/07 A3027 RMK AO2 LTG DSNT ALQDS TSE1154 P0002 T00780067
KGLH 221157Z AUTO 35010KT 6SM VCTS RA FEW005 BKN080 OVC100 08/07 A3025 RMK AO2 LTG DSNT ALQDS TSE54 P0001 T00780067
KGLH 221153Z AUTO 35010KT 5SM TSRA FEW005 BKN026 OVC110 08/07 A3024 RMK AO2 LTG DSNT ALQDS TSB39 SLP249 P0014 60172 7//// T00780067 10117 20067 53010
KGLH 221145Z AUTO 36004KT 3SM +TSRA FEW004 SCT018 OVC026 08/07 A3024 RMK AO2 LTG DSNT E-SW TSB39 P0012 T00780072
KGLH 221116Z AUTO 32009KT 9SM VCTS -RA OVC004 09/08 A3024 RMK AO2 LTG DSNT NE AND SW P0001 T00890078
KGLH 221100Z AUTO 31004KT 10SM -RA BKN004 OVC024 09/08 A3023 RMK AO2 LTG DSNT SW AND W PRESRR P0000 T00890083
KGLH 221053Z AUTO 34004KT 7SM -RA SCT004 OVC026 09/08 A3022 RMK AO2 SLP240 P0027 T00890078
KGLH 221049Z AUTO 32004KT 3SM -RA SCT004 BKN026 OVC038 09/08 A3021 RMK AO2 P0027
KGLH 221044Z AUTO 33008KT 1 1/4SM +RA FEW004 BKN028 OVC037 09/08 A3021 RMK AO2 P0027 T00890083
KGLH 221034Z AUTO 32003KT 2SM +RA FEW004 OVC034 09/08 A3021 RMK AO2 P0016 T00890083
KGLH 221018Z AUTO 00000KT 5SM +RA SCT004 BKN037 OVC070 08/08 A3021 RMK AO2 LTG DSNT NE AND E P0004 T00830078
KGLH 221009Z AUTO 00000KT 9SM VCTS -RA BKN004 BKN008 OVC039 08/07 A3022 RMK AO2 P0002 T00830072
KGLH 220959Z AUTO 12004KT 4SM VCTS RA SCT003 BKN034 OVC047 08/08 A3023 RMK AO2 P0001 T00830078
KGLH 220953Z AUTO 00000KT 2SM +RA FEW003 BKN034 OVC045 08/07 A3022 RMK AO2 SLP241 P0091 T00780072
KGLH 220950Z AUTO VRB05KT 2SM +RA BKN032 OVC045 08/07 A3021 RMK AO2 P0091
KGLH 220935Z AUTO 09008KT 2 1/2SM +RA BKN027 OVC060 07/07 A3022 RMK AO2 LTG DSNT S AND SW P0076 T00720067
KGLH 220915Z AUTO 06010KT 1SM +RA BKN017 BKN034 OVC044 07/06 A3022 RMK AO2 LTG DSNT SE AND SW P0049 T00670061
KGLH 220906Z AUTO 06011KT 1 3/4SM +RA SCT021 BKN034 OVC075 07/06 A3023 RMK AO2 VIS 1V5 LTG DSNT E-SW P0021 T00670056
KGLH 220853Z AUTO 02009KT 10SM -RA SCT007 BKN044 OVC075 07/06 A3023 RMK AO2 LTG DSNT E AND SW SLP246 P0005 60040 T00670056 58006
KGLH 220817Z AUTO 36013KT 7SM -RA BKN006 BKN016 OVC024 08/07 A3026 RMK AO2 LTG DSNT E-S P0005 T00780067
KGLH 220803Z AUTO 03008KT 4SM +RA SCT006 BKN018 OVC080 08/07 A3026 RMK AO2 LTG DSNT E-S P0003 T00830072
KGLH 220753Z AUTO 02009KT 7SM RA SCT011 BKN040 OVC090 09/08 A3025 RMK AO2 LTG DSNT NE-S SLP252 P0017 T00890078
KGLH 220751Z AUTO 02010KT 9SM -RA FEW006 BKN037 OVC100 09/08 A3025 RMK AO2 LTG DSNT NE-S P0016
KGLH 220716Z AUTO 32010KT 3SM VCTS +RA SCT006 OVC016 10/09 A3025 RMK AO2 LTG DSNT ALQDS P0013 T01000089
KGLH 220714Z AUTO 33009KT 3SM +RA SCT006 BKN014 OVC020 11/09 A3025 RMK AO2 LTG DSNT ALQDS P0011 T01060094
KGLH 220709Z AUTO 36009KT 2 1/2SM +RA FEW008 SCT015 OVC020 11/09 A3024 RMK AO2 LTG DSNT ALQDS P0009 T01060094
KGLH 220702Z AUTO 01011KT 3SM +RA BKN015 OVC022 11/10 A3025 RMK AO2 LTG DSNT ALQDS P0004 T01110100
KGLH 220653Z AUTO 36011KT 5SM VCTS RA FEW008 BKN017 OVC040 11/10 A3027 RMK AO2 LTG DSNT ALQDS TSE0555B20E35 PRESRR SLP259 P0018 T01110100
KGLH 220648Z AUTO 35011KT 5SM VCTS +RA FEW008 SCT017 OVC040 11/10 A3025 RMK AO2 LTG DSNT ALQDS TSE0555B20E35 P0017
KGLH 220641Z AUTO 35015G21KT 5SM VCTS RA FEW016 BKN044 OVC070 11/10 A3024 RMK AO2 LTG DSNT ALQDS TSE0555B20E35 P0015 T01110100
KGLH 220633Z AUTO 35014KT 4SM +TSRA FEW007 OVC039 12/11 A3024 RMK AO2 LTG DSNT ALQDS TSE0555B20 P0014 T01170106
KGLH 220620Z AUTO 36012KT 4SM +TSRA FEW006 BKN023 OVC045 12/11 A3025 RMK AO2 LTG DSNT ALQDS TSE0555B20 P0009 T01170106
KGLH 220610Z AUTO 35014KT 4SM VCTS +RA FEW006 OVC012 12/11 A3024 RMK AO2 LTG DSNT ALQDS TSE0555 P0006 T01170106
KGLH 220601Z AUTO 32014KT 5SM VCTS RA FEW006 OVC009 12/11 A3025 RMK AO2 LTG DSNT ALQDS TSE0555 P0002 T01170106
KGLH 220553Z AUTO 33012KT 5SM +TSRA FEW005 BKN009 OVC013 12/11 A3024 RMK AO2 WSHFT 0523 LTG DSNT ALQDS SLP245 P0022 60085 T01170111 10128 20111 402110111 51018
KGLH 220539Z AUTO 31012KT 6SM TSRA FEW005 BKN013 OVC080 12/11 A3023 RMK AO2 WSHFT 0523 LTG DSNT NE-S P0018 T01220111
KGLH 220530Z AUTO 31011KT 5SM -TSRA FEW005 BKN021 OVC080 13/12 A3023 RMK AO2 LTG DSNT ALQDS PRESRR P0016 T01280117
KGLH 220504Z AUTO 07007KT 3SM +TSRA FEW018 BKN032 OVC085 12/12 A3020 RMK AO2 LTG DSNT NE AND SW AND W P0009 T01220117
KGLH 220453Z AUTO 09008KT 2SM +TSRA FEW008 SCT018 OVC026 12/11 A3022 RMK AO2 VIS 1V3 LTG DSNT SW-N TSB46 SLP239 P0050 T01220111
KGLH 220446Z AUTO 06011KT 2SM +TSRA FEW006 FEW010 OVC016 12/11 A3020 RMK AO2 VIS 1 1/4V4 LTG DSNT ALQDS TSB46 P0043 T01170106
KGLH 220438Z AUTO 36015G22KT 3SM VCTS +RA FEW007 SCT011 OVC016 12/11 A3021 RMK AO2 LTG DSNT ALQDS P0030 T01170106
KGLH 220434Z AUTO 34017G22KT 4SM VCTS +RA BKN007 OVC016 12/11 A3023 RMK AO2 LTG DSNT ALQDS P0028 T01170106
KGLH 220422Z AUTO 33009KT 5SM +RA SCT005 BKN011 OVC016 12/11 A3022 RMK AO2 LTG DSNT SW-N P0024 T01170111
KGLH 220414Z AUTO 33008KT 2SM -RA SCT005 BKN011 OVC016 12/11 A3022 RMK AO2 LTG DSNT N AND W P0021 T01170111
KGLH 220408Z AUTO 31011KT 1 3/4SM +RA BKN005 OVC011 12/11 A3022 RMK AO2 VIS 1V5 LTG DSNT W PRESRR P0021 T01220111
KGLH 220353Z AUTO 31010KT 10SM -RA BKN005 BKN015 OVC027 13/12 A3020 RMK AO2 PRESRR SLP234 P0001 T01280117
KGLH 220349Z AUTO 07005KT 10SM -RA BKN005 BKN027 OVC033 12/12 A3018 RMK AO2 LTG DSNT N P0001
KGLH 220049Z AUTO 05015G21KT 10SM BKN009 OVC045 11/09 A3020 RMK AO2 RAE27 P0002
KGLH 220042Z 06017KT 10SM BKN010 OVC047 11/09 A3020 RMK AO2 RAE27 P0002 T01110094
KGLH 220029Z 05016G24KT 10SM FEW009 BKN048 OVC060 11/09 A3020 RMK AO2 RAE27 P0002 T01110094
KGLH 212353Z 04017G24KT 5SM RA FEW035 BKN070 OVC090 11/09 A3020 RMK AO2 PK WND 03029/2301 SLP232 P0005 60050 T01110094 10144 20111 58001
KGLH 212253Z 03016G29KT 10SM -RA SCT008 BKN065 OVC095 11/10 A3020 RMK AO2 PK WND 02029/2250 TSE02 SLP234 P0014 T01110100
KGLH 212219Z 02019G27KT 3SM +RA SCT008 BKN030 12/10 A3019 RMK AO2 PK WND 02027/2215 LTG DSNT E AND SE TSE02 P0011 T01170100
KGLH 212206Z 01018G24KT 3SM +RA SCT008 BKN025 OVC049 12/10 A3021 RMK AO2 LTG DSNT E-SW TSE02 P0006 T01170100
KGLH 212202Z 02019G23KT 2 1/2SM VCTS +RA SCT008 BKN025 OVC049 12/11 A3022 RMK AO2 LTG DSNT SE AND SW TSE02 P0005 T01170106
KGLH 212153Z 03017G24KT 2 1/2SM +TSRA FEW008 BKN047 OVC075 12/11 A3021 RMK AO2 PK WND 02027/2126 LTG DSNT ALQDS TSB13E28B47 SLP236 P0019 T01170106
KGLH 212147Z 03018G25KT 3SM +TSRA FEW008 BKN034 OVC075 12/11 A3020 RMK AO2 PK WND 02027/2126 LTG DSNT ALQDS TSB13E28B47 P0016
KGLH 212134Z 02019G27KT 3SM VCTS +RA BKN037 BKN055 OVC080 12/11 A3020 RMK AO2 PK WND 02027/2126 LTG DSNT ALQDS TSB13E28 P0011 T01220106
KGLH 212119Z 03019G26KT 4SM +TSRA BKN035 BKN045 OVC080 12/11 A3021 RMK AO2 PK WND 03027/2059 LTG DSNT ALQDS TSB13 P0005 T01220106
KGLH 212053Z 03019G24KT 4SM RA SCT035 BKN048 OVC070 12/11 A3020 RMK AO2 PK WND 02027/2022 LTG DSNT E-S TSB08E23 SLP233 P0012 60012 T01220111 56020
KGLH 212029Z 03020G27KT 5SM RA SCT042 BKN060 OVC080 13/11 A3019 RMK AO2 PK WND 02027/2022 LTG DSNT ALQDS TSB08E23 P0005 T01280111
KGLH 212014Z 03020KT 6SM TSRA BKN043 OVC055 13/11 A3021 RMK AO2 LTG DSNT E-SW TSB08 P0002 T01280111
KGLH 212003Z 02020G25KT 8SM VCTS RA OVC041 13/11 A3021 RMK AO2 LTG DSNT E-SW P0001 T01280106
KGLH 211953Z 02019G30KT 10SM -RA OVC040 13/11 A3021 RMK AO2 PK WND 01032/1900 LTG DSNT S AND SW RAE06B15 SLP237 P0000 T01280106
KGLH 211908Z 01016G32KT 10SM SCT012 OVC037 13/11 A3025 RMK AO2 PK WND 01032/1900 LTG DSNT NE AND E RAE06 P0000 T01280111
KGLH 211853Z 01020G31KT 10SM -RA BKN011 OVC036 13/11 A3023 RMK AO2 PK WND 36032/1847 WSHFT 1826 LTG DSNT E AND SE RAE1757B37 SLP244 P0000 T01330111
KGLH 211846Z 01026G31KT 10SM -RA OVC010 13/12 A3024 RMK AO2 PK WND 36031/1846 WSHFT 1826 LTG DSNT E RAE1757B37 P0000 T01330117
KGLH 211809Z 33011G21KT 10SM BKN012 OVC028 14/12 A3026 RMK AO2 LTG DSNT S AND W RAE1757 P0000 T01440122
KGLH 211753Z 36011G25KT 10SM -RA SCT012 OVC028 14/12 A3026 RMK AO2 PK WND 02028/1741 SLP252 P0004 6//// T01440122 10211 20144 53009
KGLH 211706Z 03021G25KT 6SM -RA OVC027 14/13 A3023 RMK AO2 PK WND 03026/1706 P0002 T01440128 $
KGLH 211653Z 03019G29KT 2 1/2SM +RA OVC027 14/13 A3025 RMK AO2 PK WND 03031/1555 SLP249 T01440128 PNO $
KGLH 211643Z 03021G28KT 8SM RA FEW011 OVC026 14/13 A3024 RMK AO2 PK WND 03031/1555 T01440128 PNO $
KGLH 211635Z 03018G26KT 2 1/2SM RA FEW011 OVC026 14/13 A3024 RMK AO2 PK WND 03031/1555 T01440128 PNO $
KGLH 211553Z 03022G30KT 5SM RA OVC022 14/12 A3022 RMK AO2 PK WND 04032/1542 LTG DSNT SW-NW RAE05B21 SLP240 P0006 T01440122
KGLH 211516Z 02021G28KT 10SM OVC016 15/12 A3022 RMK AO2 PK WND 02028/1516 LTG DSNT NE AND SW AND W RAE05 P0000 T01500122
KGLH 211453Z 35018G29KT 10SM -RA OVC012 16/13 A3023 RMK AO2 PK WND 35034/1438 LTG DSNT W RAB53 SLP243 P0000 60000 T01560128 53019
KGLH 211435Z 33017G26KT 10SM BKN009 BKN031 OVC043 17/14 A3021 RMK AO2 PK WND 34026/1435 T01670144
KGLH 211353Z 17008KT 8SM FEW041 SCT090 BKN120 20/18 A3019 RMK AO2 LTG DSNT N SLP229 T02000183
KGLH 211253Z 16007KT 8SM FEW021 BKN100 19/18 A3019 RMK AO2 SLP228 T01940178
KGLH 210753Z AUTO 17007KT 10SM CLR 21/17 A3013 RMK AO2 SLP208 T02060172
KGLH 210653Z AUTO 17010KT 10SM CLR 21/17 A3012 RMK AO2 SLP205 T02110172
KGLH 210553Z AUTO 17010KT 10SM CLR 21/17 A3011 RMK AO2 SLP202 60000 T02060167 10244 20206 402830178 51013
KGLH 201453Z 17015G22KT 10SM CLR 22/17 A3013 RMK AO2 SLP208 T02170172 53012
KGLH 201353Z 15012KT 10SM FEW029 OVC065 19/17 A3012 RMK AO2 SLP204 T01940172
KGLH 201253Z 15013KT 10SM SCT070 19/17 A3009 RMK AO2 SLP196 T01890167
KGLH 201153Z AUTO 16011KT 10SM SCT070 19/17 A3009 RMK AO2 SLP196 T01890167 10200 20178 53007
KGLH 201053Z AUTO 15011KT 10SM CLR 19/17 A3007 RMK AO2 SLP187 T01890167
KGLH 200953Z AUTO 16011KT 10SM CLR 19/17 A3006 RMK AO2 SLP184 T01890167
KGLH 200853Z AUTO 15010KT 10SM CLR 19/16 A3007 RMK AO2 SLP188 T01890161 50000
KGLH 200753Z AUTO 17008KT 10SM CLR 18/16 A3008 RMK AO2 SLP192 T01830156
KGLH 200653Z AUTO 16014KT 10SM CLR 19/16 A3007 RMK AO2 SLP188 T01940161
KGLH 200553Z AUTO 16010KT 10SM CLR 20/16 A3007 RMK AO2 SLP189 T02000156 10228 20183 402670133 51011
KGLH 200453Z AUTO 17011KT 10SM FEW050 21/16 A3007 RMK AO2 SLP187 T02060156
KGLH 200353Z AUTO 18008KT 10SM BKN044 21/16 A3006 RMK AO2 SLP185 T02060156
KGLH 200253Z AUTO 16009KT 10SM FEW043 BKN055 OVC080 22/14 A3004 RMK AO2 SLP178 T02170144 53010
KGLH 200153Z AUTO 16006KT 10SM SCT060 BKN075 19/14 A3002 RMK AO2 SLP172 T01890144
KGLH 200053Z AUTO 15006KT 10SM CLR 21/14 A3002 RMK AO2 SLP170 T02110139
KGLH 192353Z 16008KT 10SM CLR 23/14 A3001 RMK AO2 RAE14 SLP167 P0000 60000 T02280144 10267 20222 53001
KGLH 192253Z 17011KT 10SM -RA CLR 24/14 A3000 RMK AO2 PK WND 18026/2159 SLP164 P0000 T02440144
KGLH 192153Z 19017G25KT 10SM -RA CLR 26/14 A3000 RMK AO2 PK WND 19029/2120 SLP166 P0000 T02560139
KGLH 192053Z 17017KT 10SM -RA CLR 26/15 A3000 RMK AO2 RAB00 SLP166 P0000 60000 T02610150 56026
KGLH 191953Z 18018G28KT 10SM CLR 24/16 A3002 RMK AO2 PK WND 19030/1928 SLP170 T02440156
KGLH 191853Z 19017KT 10SM CLR 24/17 A3004 RMK AO2 SLP178 T02390167
KGLH 191753Z 19021KT 10SM FEW025 FEW032 23/17 A3008 RMK AO2 SLP192 T02280167 10233 20144 58011
KGLH 191653Z 17016KT 10SM FEW024 23/18 A3010 RMK AO2 SLP200 T02280178
KGLH 191553Z 17013KT 10SM CLR 21/17 A3012 RMK AO2 SLP204 T02060172
KGLH 191453Z 16010KT 10SM CLR 18/16 A3011 RMK AO2 SLP204 T01830161 53009